Time;durP1;ratioP1;P1;durP2;ratioP2;P2;SDS_P1;SDS_P2;PMS_P1;PMS_P2;Temp;Humidity;BMP_temperature;BMP_pressure;BME280_temperature;BME280_humidity;BME280_pressure;Samples;Min_cycle;Max_cycle;Signal;HPM_P1;HPM_P2
2022/01/05 00:02:43;;;;;;;7.63;4.75;;;;;;;26.74;36.33;95043.34;4971513;22;20063;-61
2022/01/05 00:05:09;;;;;;;12.85;5.20;;;;;;;26.74;36.33;95048.59;5003939;22;20099;-60
2022/01/05 00:07:34;;;;;;;7.97;4.90;;;;;;;26.74;36.11;95048.59;5010359;28;20041;-60
2022/01/05 00:10:00;;;;;;;11.13;4.82;;;;;;;26.73;36.16;95052.16;4993227;28;20574;-59
2022/01/05 00:12:25;;;;;;;8.98;4.80;;;;;;;26.72;36.45;95056.59;5013256;28;20041;-61
2022/01/05 00:14:51;;;;;;;9.10;4.82;;;;;;;26.72;36.28;95050.50;5008278;28;20107;-58
2022/01/05 00:17:16;;;;;;;8.85;5.22;;;;;;;26.70;36.11;95052.44;4988994;28;20033;-59
2022/01/05 00:19:43;;;;;;;6.47;4.38;;;;;;;26.71;36.12;95049.69;5014136;28;20535;-58
2022/01/05 00:22:09;;;;;;;7.45;4.55;;;;;;;26.71;36.24;95038.34;5013270;28;20028;-58
2022/01/05 00:24:36;;;;;;;7.40;5.00;;;;;;;26.71;36.26;95043.59;5008173;28;20037;-59
2022/01/05 00:27:01;;;;;;;6.32;4.25;;;;;;;26.70;36.13;95031.41;5012662;28;20037;-59
2022/01/05 00:29:27;;;;;;;6.05;4.07;;;;;;;26.70;36.17;95020.91;4995848;28;20052;-58
2022/01/05 00:31:52;;;;;;;8.52;4.80;;;;;;;26.69;36.19;95014.00;5012196;28;20401;-59
2022/01/05 00:34:18;;;;;;;10.45;3.90;;;;;;;26.69;36.13;95003.47;5008649;28;20034;-60
2022/01/05 00:36:43;;;;;;;7.60;4.55;;;;;;;26.67;36.10;95003.59;5013480;28;20221;-59
2022/01/05 00:39:09;;;;;;;9.93;4.38;;;;;;;26.66;36.08;95009.81;5013133;28;20109;-57
2022/01/05 00:41:34;;;;;;;11.20;4.03;;;;;;;26.67;36.07;95000.97;5012328;28;20026;-58
2022/01/05 00:43:59;;;;;;;6.85;3.67;;;;;;;26.67;35.91;94997.50;5007935;28;20029;-59
2022/01/05 00:46:25;;;;;;;7.40;3.78;;;;;;;26.60;35.96;94969.16;5011059;28;20021;-60
2022/01/05 00:48:50;;;;;;;6.70;3.90;;;;;;;26.66;36.08;94987.97;5011958;28;20342;-59
2022/01/05 00:51:16;;;;;;;9.77;4.00;;;;;;;26.64;35.78;94990.72;5009892;28;20029;-59
2022/01/05 00:53:42;;;;;;;7.32;3.90;;;;;;;26.63;36.03;94981.19;4994192;28;20035;-60
2022/01/05 00:56:07;;;;;;;9.00;3.40;;;;;;;26.64;35.91;94968.88;4996897;28;20483;-58
2022/01/05 00:58:33;;;;;;;6.20;3.70;;;;;;;26.63;36.08;94961.94;4997060;28;20083;-59
2022/01/05 01:00:58;;;;;;;6.85;3.90;;;;;;;26.61;36.20;94975.22;5011859;28;20897;-57
2022/01/05 01:03:26;;;;;;;5.63;3.50;;;;;;;26.63;35.97;94993.47;5016515;28;20025;-58
2022/01/05 01:05:52;;;;;;;5.63;3.80;;;;;;;26.61;35.97;95002.34;5011180;28;20029;-58
2022/01/05 01:08:17;;;;;;;5.88;3.42;;;;;;;26.60;36.05;95000.69;5014972;28;20455;-57
2022/01/05 01:10:43;;;;;;;7.20;3.47;;;;;;;26.61;36.03;95010.22;5017490;28;20033;-59
2022/01/05 01:13:08;;;;;;;5.65;3.60;;;;;;;26.60;35.99;95005.94;4992307;28;20227;-59
2022/01/05 01:15:34;;;;;;;5.43;3.53;;;;;;;26.59;35.87;95014.75;5013099;28;20037;-60
2022/01/05 01:17:59;;;;;;;7.22;3.20;;;;;;;26.59;36.01;95000.81;5016723;28;20502;-59
2022/01/05 01:20:24;;;;;;;5.05;3.65;;;;;;;26.59;36.06;95006.88;5015223;28;20032;-58
2022/01/05 01:22:50;;;;;;;4.88;3.22;;;;;;;26.60;35.92;95020.84;5017450;28;20488;-58
2022/01/05 01:25:15;;;;;;;6.18;3.55;;;;;;;26.59;35.98;95013.94;5012795;28;20551;-60
2022/01/05 01:27:42;;;;;;;5.78;3.65;;;;;;;26.58;35.95;95022.78;5016750;28;20514;-58
2022/01/05 01:30:09;;;;;;;6.22;3.05;;;;;;;26.55;36.08;95028.28;5016736;28;20029;-57
2022/01/05 01:32:34;;;;;;;5.68;3.40;;;;;;;26.58;36.02;95028.84;4984169;28;20403;-59
2022/01/05 01:35:00;;;;;;;7.95;3.58;;;;;;;26.57;36.00;95027.19;5016294;28;20033;-60
2022/01/05 01:37:25;;;;;;;4.97;3.13;;;;;;;26.56;36.16;95030.78;5013600;28;20029;-60
2022/01/05 01:39:51;;;;;;;4.95;3.08;;;;;;;26.56;36.03;95030.78;5009285;28;20026;-58
2022/01/05 01:42:16;;;;;;;7.28;3.35;;;;;;;26.56;35.93;95028.16;5008766;28;20022;-58
2022/01/05 01:44:41;;;;;;;5.60;3.15;;;;;;;26.56;35.92;95022.06;4991921;28;20424;-59
2022/01/05 01:47:07;;;;;;;8.65;3.30;;;;;;;26.55;35.94;95013.34;5007532;28;20041;-57
2022/01/05 01:49:32;;;;;;;4.63;2.83;;;;;;;26.55;36.05;95017.78;4990285;28;20033;-57
2022/01/05 01:51:58;;;;;;;4.00;2.58;;;;;;;26.55;36.04;95021.22;5015065;28;20032;-61
2022/01/05 01:54:23;;;;;;;5.30;3.40;;;;;;;26.55;35.92;95030.91;5013849;28;20029;-58
2022/01/05 01:56:48;;;;;;;5.32;3.28;;;;;;;26.54;35.87;95027.44;5014189;28;20052;-59
2022/01/05 01:59:14;;;;;;;5.35;3.13;;;;;;;26.54;35.98;95037.94;4988201;28;20083;-60
2022/01/05 02:01:40;;;;;;;5.22;2.83;;;;;;;26.54;35.96;95037.94;4988414;28;20029;-58
2022/01/05 02:04:05;;;;;;;3.60;2.60;;;;;;;26.53;35.97;95045.94;5012607;28;20037;-58
2022/01/05 02:06:31;;;;;;;4.28;2.97;;;;;;;26.51;35.96;95059.25;4993787;28;20204;-58
2022/01/05 02:08:58;;;;;;;4.25;2.65;;;;;;;26.52;36.00;95058.28;5014470;28;20025;-59
2022/01/05 02:11:25;;;;;;;5.25;3.13;;;;;;;26.52;35.98;95045.13;4975853;28;20025;-58
2022/01/05 02:13:50;;;;;;;6.10;2.92;;;;;;;26.52;35.83;95041.66;4978655;28;20065;-58
2022/01/05 02:16:20;;;;;;;4.38;3.00;;;;;;;26.51;35.97;95043.47;5012850;28;20049;-58
2022/01/05 02:18:58;;;;;;;7.60;2.90;;;;;;;26.52;35.89;95054.81;5015142;28;20163;-57
2022/01/05 02:21:24;;;;;;;11.82;2.85;;;;;;;26.51;35.99;95053.16;4983893;28;20032;-60
2022/01/05 02:23:49;;;;;;;6.35;2.50;;;;;;;26.49;35.93;95045.38;4987424;28;20033;-58
2022/01/05 02:26:15;;;;;;;4.45;2.65;;;;;;;26.50;35.85;95043.59;5008713;28;20022;-57
2022/01/05 02:28:40;;;;;;;5.90;2.63;;;;;;;26.50;35.86;95046.22;5017450;28;20099;-60
2022/01/05 02:31:06;;;;;;;4.82;2.65;;;;;;;26.48;35.76;95049.78;5015199;28;20029;-57
2022/01/05 02:33:32;;;;;;;5.60;2.75;;;;;;;26.48;35.95;95060.31;4998304;28;20052;-59
2022/01/05 02:35:57;;;;;;;3.00;2.42;;;;;;;26.48;35.66;95054.25;4995274;28;20029;-59
2022/01/05 02:38:23;;;;;;;3.38;2.60;;;;;;;26.47;35.85;95058.66;4996354;28;20029;-59
2022/01/05 02:40:49;;;;;;;3.90;3.00;;;;;;;26.47;36.00;95058.66;4997159;28;21220;-58
2022/01/05 02:43:14;;;;;;;4.15;2.63;;;;;;;26.46;36.00;95071.91;4993751;28;20288;-59
2022/01/05 02:45:40;;;;;;;4.72;2.65;;;;;;;26.46;35.90;95066.66;4992965;28;20403;-59
2022/01/05 02:48:05;;;;;;;4.10;2.20;;;;;;;26.46;35.89;95069.28;4991226;28;20059;-59
2022/01/05 02:50:31;;;;;;;3.70;2.67;;;;;;;26.46;35.93;95074.53;5012169;28;20032;-57
2022/01/05 02:52:56;;;;;;;4.72;2.55;;;;;;;26.46;35.95;95074.53;5012546;28;20029;-58
2022/01/05 02:55:21;;;;;;;4.07;2.45;;;;;;;26.45;35.84;95065.84;5013431;28;20052;-58
2022/01/05 02:57:47;;;;;;;2.53;1.95;;;;;;;26.39;36.05;95063.69;5013368;28;20477;-59
2022/01/05 03:00:13;;;;;;;2.97;2.10;;;;;;;26.44;35.96;95074.69;5012036;28;20036;-59
2022/01/05 03:02:39;;;;;;;4.65;2.40;;;;;;;26.43;35.96;95078.25;4993217;28;20022;-59
2022/01/05 03:05:05;;;;;;;4.38;2.33;;;;;;;26.40;36.11;95065.38;5011574;28;20114;-59
2022/01/05 03:07:32;;;;;;;3.75;2.30;;;;;;;26.43;35.80;95069.56;4993761;28;20026;-59
2022/01/05 03:09:58;;;;;;;4.10;2.30;;;;;;;26.41;35.93;95076.72;4994165;28;20132;-60
2022/01/05 03:12:23;;;;;;;6.95;2.15;;;;;;;26.42;35.83;95070.50;5008211;28;20537;-57
2022/01/05 03:14:49;;;;;;;3.70;1.90;;;;;;;26.41;35.93;95072.31;5007274;28;20561;-58
2022/01/05 03:17:14;;;;;;;3.35;2.17;;;;;;;26.41;35.73;95074.09;5006738;28;20084;-57
2022/01/05 03:19:39;;;;;;;3.08;1.88;;;;;;;26.42;35.81;95075.75;5003310;28;20627;-58
2022/01/05 03:22:05;;;;;;;4.75;2.13;;;;;;;26.41;35.82;95079.34;4999966;28;20087;-57
2022/01/05 03:24:30;;;;;;;3.40;2.30;;;;;;;26.39;35.60;95071.56;5004940;28;20107;-57
2022/01/05 03:26:56;;;;;;;3.83;2.10;;;;;;;26.40;35.91;95081.16;5002659;28;20029;-59
2022/01/05 03:29:22;;;;;;;4.35;1.90;;;;;;;26.40;35.84;95075.06;5006653;28;20033;-58
2022/01/05 03:31:48;;;;;;;3.83;1.88;;;;;;;26.38;35.96;95074.34;5004038;28;20037;-59
2022/01/05 03:34:18;;;;;;;3.00;2.00;;;;;;;26.33;35.82;95062.44;4989686;28;20428;-58
2022/01/05 03:36:43;;;;;;;2.13;1.65;;;;;;;26.40;35.75;95069.78;5005124;28;20319;-61
2022/01/05 03:39:08;;;;;;;3.05;1.90;;;;;;;26.38;35.78;95075.16;4988317;28;20033;-59
2022/01/05 03:41:34;;;;;;;2.58;2.03;;;;;;;26.38;35.72;95079.59;5008875;28;20056;-59
2022/01/05 03:43:59;;;;;;;3.22;2.05;;;;;;;26.38;35.72;95079.59;5012230;28;20025;-60
2022/01/05 03:46:25;;;;;;;2.42;1.58;;;;;;;26.38;35.78;95083.06;5015218;28;20021;-57
2022/01/05 03:48:50;;;;;;;2.35;1.83;;;;;;;26.37;35.82;95083.19;5012176;28;20033;-59
2022/01/05 03:51:15;;;;;;;2.67;1.50;;;;;;;26.30;35.87;95075.81;4993975;28;20029;-57
2022/01/05 03:53:41;;;;;;;2.22;1.60;;;;;;;26.37;35.69;95088.44;5006404;28;20060;-59
2022/01/05 03:56:06;;;;;;;3.40;1.75;;;;;;;26.37;35.75;95094.53;5007165;28;20032;-57
2022/01/05 03:58:31;;;;;;;2.50;1.60;;;;;;;26.36;35.66;95092.88;5003198;28;20395;-56
2022/01/05 04:00:57;;;;;;;2.88;1.60;;;;;;;26.36;35.79;95098.13;5008566;28;20593;-59
2022/01/05 04:03:22;;;;;;;2.47;1.60;;;;;;;26.35;35.78;95102.53;5009966;28;20113;-59
2022/01/05 04:05:48;;;;;;;2.30;1.60;;;;;;;26.35;35.75;95110.41;5005846;28;20038;-58
2022/01/05 04:08:13;;;;;;;2.80;1.70;;;;;;;26.34;35.76;95106.13;5008302;28;20468;-58
2022/01/05 04:10:39;;;;;;;3.83;1.77;;;;;;;26.34;35.70;95111.38;5011515;28;20132;-59
2022/01/05 04:13:04;;;;;;;7.25;1.88;;;;;;;26.34;35.71;95111.38;5010066;28;20029;-58
2022/01/05 04:15:30;;;;;;;2.10;1.30;;;;;;;26.35;35.69;95117.44;5010270;28;20411;-57
2022/01/05 04:17:55;;;;;;;5.10;1.65;;;;;;;26.35;35.67;95115.66;4972833;28;20026;-59
2022/01/05 04:20:21;;;;;;;4.00;1.70;;;;;;;26.35;35.76;95117.44;4989180;28;20609;-58
2022/01/05 04:22:46;;;;;;;3.03;1.50;;;;;;;26.34;35.64;95121.88;5005954;28;20040;-59
2022/01/05 04:25:12;;;;;;;7.95;1.85;;;;;;;26.34;35.80;95127.13;5010778;28;20462;-59
2022/01/05 04:27:37;;;;;;;5.10;1.52;;;;;;;26.30;35.70;95117.81;5008956;28;20466;-58
2022/01/05 04:30:04;;;;;;;3.38;1.50;;;;;;;26.34;35.65;95142.88;5007440;28;20037;-59
2022/01/05 04:32:29;;;;;;;2.13;1.40;;;;;;;26.34;35.71;95152.53;4987114;28;20039;-59
2022/01/05 04:34:55;;;;;;;2.20;1.27;;;;;;;26.33;35.75;95151.72;5009927;28;20033;-59
2022/01/05 04:37:20;;;;;;;1.67;1.20;;;;;;;26.33;35.75;95156.97;5011401;28;20052;-60
2022/01/05 04:39:46;;;;;;;3.83;1.63;;;;;;;26.33;35.78;95161.38;5014092;28;20434;-59
2022/01/05 04:42:11;;;;;;;3.28;1.77;;;;;;;26.29;35.68;95159.97;5015922;28;20029;-59
2022/01/05 04:44:37;;;;;;;3.88;1.40;;;;;;;26.32;35.74;95176.28;4990274;28;20483;-59
2022/01/05 04:47:02;;;;;;;4.65;1.35;;;;;;;26.31;35.77;95182.50;4991211;28;20861;-59
2022/01/05 04:49:28;;;;;;;2.63;1.50;;;;;;;26.31;35.58;95182.50;5015322;28;20274;-60
2022/01/05 04:51:53;;;;;;;3.45;1.17;;;;;;;26.31;35.78;95190.38;4988998;28;20420;-58
2022/01/05 04:54:18;;;;;;;4.07;1.30;;;;;;;26.30;35.77;95186.09;4995287;28;20030;-59
2022/01/05 04:56:44;;;;;;;2.50;1.35;;;;;;;26.31;35.72;95186.94;5011990;28;20558;-57
2022/01/05 04:59:09;;;;;;;1.38;1.17;;;;;;;26.30;35.72;95188.72;5010967;28;20435;-57
2022/01/05 05:01:35;;;;;;;3.13;1.50;;;;;;;26.30;35.76;95201.84;5006349;28;20025;-59
2022/01/05 05:04:00;;;;;;;5.43;1.30;;;;;;;26.29;35.57;95202.81;5007696;28;20111;-59
2022/01/05 05:06:26;;;;;;;2.50;1.00;;;;;;;26.29;35.67;95199.34;5016449;28;20033;-58
2022/01/05 05:08:51;;;;;;;1.88;1.35;;;;;;;26.29;35.57;95208.06;4997624;28;20040;-60
2022/01/05 05:11:16;;;;;;;1.70;1.10;;;;;;;26.29;35.69;95218.56;5012399;28;20420;-58
2022/01/05 05:13:42;;;;;;;1.70;1.08;;;;;;;26.29;35.63;95213.31;4979383;28;20591;-58
2022/01/05 05:16:07;;;;;;;3.20;1.20;;;;;;;26.27;35.63;95223.09;5015294;28;20029;-57
2022/01/05 05:18:33;;;;;;;1.45;1.02;;;;;;;26.29;35.73;95228.25;5018311;28;20055;-59
2022/01/05 05:20:58;;;;;;;2.75;1.20;;;;;;;26.28;35.51;95227.41;5017194;28;20037;-59
2022/01/05 05:23:24;;;;;;;2.30;1.13;;;;;;;26.28;35.50;95232.63;4990818;28;20033;-58
2022/01/05 05:25:49;;;;;;;3.15;1.13;;;;;;;26.27;35.52;95236.22;4989417;28;20043;-58
2022/01/05 05:28:14;;;;;;;2.45;1.17;;;;;;;26.26;35.41;95246.84;5012831;28;20059;-59
2022/01/05 05:30:40;;;;;;;4.55;0.75;;;;;;;26.26;35.39;95247.69;5002724;28;20033;-57
2022/01/05 05:33:05;;;;;;;1.67;1.00;;;;;;;26.25;35.32;95259.13;4991367;28;20593;-59
2022/01/05 05:35:31;;;;;;;5.43;1.00;;;;;;;26.25;35.42;95264.38;4995053;28;20087;-59
2022/01/05 05:37:56;;;;;;;2.20;1.10;;;;;;;26.24;35.26;95270.59;5010552;28;20102;-58
2022/01/05 05:40:22;;;;;;;0.98;0.90;;;;;;;26.24;35.15;95288.97;4985523;28;20033;-58
2022/01/05 05:42:48;;;;;;;1.50;0.90;;;;;;;26.23;35.28;95318.81;4985395;28;20029;-59
2022/01/05 05:45:13;;;;;;;2.92;1.02;;;;;;;26.23;35.05;95345.06;4993623;28;20446;-60
2022/01/05 05:47:39;;;;;;;4.05;1.00;;;;;;;26.22;34.93;95343.41;4993346;28;20076;-59
2022/01/05 05:50:04;;;;;;;1.60;0.82;;;;;;;26.21;34.85;95346.97;5000762;28;20232;-58
2022/01/05 05:52:29;;;;;;;1.00;0.80;;;;;;;26.20;34.99;95356.63;5002306;28;21052;-59
2022/01/05 05:54:55;;;;;;;1.75;0.93;;;;;;;26.19;34.84;95356.75;4994904;28;20037;-60
2022/01/05 05:57:20;;;;;;;1.52;1.00;;;;;;;26.18;34.77;95366.44;5013172;28;20033;-61
2022/01/05 05:59:46;;;;;;;4.45;0.80;;;;;;;26.18;34.63;95360.34;5002233;28;20033;-57
2022/01/05 06:02:11;;;;;;;3.17;0.77;;;;;;;26.18;34.80;95362.97;5007768;28;20026;-59
2022/01/05 06:04:36;;;;;;;2.35;0.82;;;;;;;26.19;34.77;95367.25;5007969;28;20037;-60
2022/01/05 06:07:02;;;;;;;1.95;1.00;;;;;;;26.18;34.78;95373.47;5009072;28;20038;-59
2022/01/05 06:09:28;;;;;;;1.35;0.80;;;;;;;26.18;34.87;95383.97;5009639;28;20037;-58
2022/01/05 06:11:53;;;;;;;1.75;0.73;;;;;;;26.16;34.93;95389.34;5013824;28;20151;-57
2022/01/05 06:14:18;;;;;;;2.70;1.08;;;;;;;26.18;34.75;95389.22;5007968;28;20476;-58
2022/01/05 06:16:44;;;;;;;2.00;0.90;;;;;;;26.18;34.90;95403.19;5009952;28;20056;-58
2022/01/05 06:19:09;;;;;;;1.73;0.77;;;;;;;26.18;34.80;95410.22;5003062;28;20029;-58
2022/01/05 06:21:35;;;;;;;0.93;0.70;;;;;;;26.19;34.96;95406.63;4984625;28;20044;-57
2022/01/05 06:24:01;;;;;;;2.13;0.75;;;;;;;26.19;34.77;95406.63;5002305;28;20037;-58
2022/01/05 06:26:26;;;;;;;1.10;0.80;;;;;;;26.18;34.96;95408.44;5011879;28;20105;-58
2022/01/05 06:28:51;;;;;;;1.00;0.80;;;;;;;26.17;34.74;95413.81;5009091;28;20541;-58
2022/01/05 06:31:17;;;;;;;1.15;0.77;;;;;;;26.18;34.81;95423.34;5009740;28;20352;-57
2022/01/05 06:33:42;;;;;;;1.38;0.75;;;;;;;26.18;34.84;95425.97;4988052;28;20029;-58
2022/01/05 06:36:08;;;;;;;0.82;0.60;;;;;;;26.18;34.82;95431.22;5010164;28;20042;-58
2022/01/05 06:38:33;;;;;;;0.68;0.65;;;;;;;26.19;34.69;95436.38;5007364;28;20488;-59
2022/01/05 06:40:58;;;;;;;2.30;0.82;;;;;;;26.18;34.91;95441.72;5008287;28;20512;-57
2022/01/05 06:43:24;;;;;;;0.57;0.57;;;;;;;26.19;34.85;95443.41;5011513;28;20032;-58
2022/01/05 06:45:49;;;;;;;0.82;0.60;;;;;;;26.19;35.04;95453.91;5005166;28;20448;-59
2022/01/05 06:48:15;;;;;;;0.88;0.70;;;;;;;26.19;34.89;95470.50;4988581;28;20623;-58
2022/01/05 06:50:40;;;;;;;0.85;0.70;;;;;;;26.20;34.82;95466.09;5007491;28;20033;-59
2022/01/05 06:53:05;;;;;;;1.55;0.80;;;;;;;26.15;34.79;95462.97;5007679;28;20451;-60
2022/01/05 06:55:31;;;;;;;3.17;0.75;;;;;;;26.19;34.96;95469.66;4993408;28;20056;-59
2022/01/05 06:57:56;;;;;;;1.02;0.52;;;;;;;26.19;34.99;95472.28;5001100;28;20451;-58
2022/01/05 07:00:23;;;;;;;2.45;0.70;;;;;;;26.18;34.82;95479.34;5004821;28;20037;-59
2022/01/05 07:02:49;;;;;;;0.52;0.43;;;;;;;26.18;34.87;95484.59;4987605;28;20041;-60
2022/01/05 07:05:14;;;;;;;3.80;0.60;;;;;;;26.20;34.84;95492.34;4985151;28;20025;-59
2022/01/05 07:07:40;;;;;;;1.05;0.63;;;;;;;26.19;34.79;95491.50;4992578;28;20332;-58
2022/01/05 07:10:06;;;;;;;2.45;0.63;;;;;;;26.19;34.72;95490.66;5014268;28;20028;-57
2022/01/05 07:12:32;;;;;;;1.52;0.77;;;;;;;26.18;34.74;95500.34;4992636;28;20033;-58
2022/01/05 07:14:58;;;;;;;3.05;0.70;;;;;;;26.18;34.75;95504.75;5003110;28;20120;-57
2022/01/05 07:17:23;;;;;;;0.82;0.50;;;;;;;26.19;34.55;95506.41;5002759;28;20462;-58
2022/01/05 07:19:48;;;;;;;2.20;0.90;;;;;;;26.17;34.68;95514.44;5006685;28;20277;-57
2022/01/05 07:22:14;;;;;;;3.03;0.80;;;;;;;26.18;34.79;95515.25;4984955;28;20519;-58
2022/01/05 07:24:39;;;;;;;1.58;0.73;;;;;;;26.19;34.64;95523.00;5001317;28;20428;-58
2022/01/05 07:27:05;;;;;;;0.82;0.57;;;;;;;26.19;34.61;95530.03;5010687;28;20261;-57
2022/01/05 07:29:30;;;;;;;8.55;0.80;;;;;;;26.17;34.45;95529.34;5001592;28;20029;-57
2022/01/05 07:31:56;;;;;;;2.25;0.80;;;;;;;26.19;34.65;95543.19;4983501;28;20083;-60
2022/01/05 07:34:21;;;;;;;4.10;2.08;;;;;;;26.20;34.73;95560.63;4968916;28;20550;-57
2022/01/05 07:36:47;;;;;;;6.10;0.70;;;;;;;26.20;34.45;95563.25;4979422;28;20040;-59
2022/01/05 07:39:12;;;;;;;6.25;0.77;;;;;;;26.20;34.29;95560.63;5004177;28;20591;-60
2022/01/05 07:41:37;;;;;;;10.80;1.77;;;;;;;26.19;34.20;95562.41;5000298;28;21323;-62
2022/01/05 07:44:03;;;;;;;9.55;1.90;;;;;;;26.18;34.01;95557.25;4984019;28;20045;-59
2022/01/05 07:46:29;;;;;;;9.20;2.50;;;;;;;26.17;33.98;95566.09;4970550;28;20328;-59
2022/01/05 07:48:54;;;;;;;13.10;3.35;;;;;;;26.16;33.68;95577.56;4982838;28;20044;-57
2022/01/05 07:51:20;;;;;;;14.57;4.07;;;;;;;26.15;33.86;95595.09;5001168;28;20038;-58
2022/01/05 07:53:45;;;;;;;16.98;4.15;;;;;;;26.15;34.00;95599.50;5002346;28;20091;-58
2022/01/05 07:56:11;;;;;;;14.93;3.50;;;;;;;26.15;33.81;95599.50;5004461;28;20041;-58
2022/01/05 07:58:36;;;;;;;10.43;3.63;;;;;;;26.14;33.86;95601.28;5000692;28;20688;-57
2022/01/05 08:01:05;;;;;;;16.05;4.82;;;;;;;26.14;33.87;95603.91;4983143;28;21081;-57
2022/01/05 08:03:33;;;;;;;12.30;4.15;;;;;;;26.12;33.83;95605.81;5000219;28;20033;-58
2022/01/05 08:06:02;;;;;;;14.88;4.65;;;;;;;26.09;33.83;95600.81;4978291;28;20395;-59
2022/01/05 08:08:27;;;;;;;21.33;4.65;;;;;;;26.14;33.74;95605.69;5002816;28;20450;-58
2022/01/05 08:10:53;;;;;;;17.75;4.70;;;;;;;26.14;33.89;95621.44;5013346;28;20033;-59
2022/01/05 08:13:18;;;;;;;16.65;4.28;;;;;;;26.12;34.03;95624.19;5013666;28;20025;-58
2022/01/05 08:15:44;;;;;;;12.30;4.25;;;;;;;26.14;33.97;95629.31;5007837;28;20323;-57
2022/01/05 08:18:09;;;;;;;15.90;3.60;;;;;;;26.16;34.10;95635.31;5011145;28;20483;-59
2022/01/05 08:20:35;;;;;;;10.00;3.65;;;;;;;26.16;34.07;95645.81;4998095;28;20029;-58
2022/01/05 08:23:00;;;;;;;10.13;3.53;;;;;;;26.16;34.10;95666.84;5007216;28;20739;-58
2022/01/05 08:25:25;;;;;;;8.32;3.15;;;;;;;26.16;33.88;95659.78;5008198;28;20534;-57
2022/01/05 08:27:51;;;;;;;7.25;3.15;;;;;;;26.17;33.87;95668.50;4976944;28;20044;-58
2022/01/05 08:30:19;;;;;;;6.35;2.65;;;;;;;26.16;33.74;95679.97;5015810;28;20033;-58
2022/01/05 08:32:46;;;;;;;6.85;2.75;;;;;;;26.16;33.47;95674.72;4988183;28;20029;-58
2022/01/05 08:35:12;;;;;;;7.82;2.47;;;;;;;26.15;33.34;95670.38;4990625;28;20032;-59
2022/01/05 08:37:39;;;;;;;6.55;2.35;;;;;;;26.15;33.33;95678.25;4970473;28;20549;-57
2022/01/05 08:40:05;;;;;;;6.40;2.40;;;;;;;26.14;33.44;95676.59;5009514;28;20061;-59
2022/01/05 08:42:30;;;;;;;6.88;2.83;;;;;;;26.14;33.45;95684.47;4994249;28;20036;-59
2022/01/05 08:44:57;;;;;;;11.88;3.40;;;;;;;26.14;33.53;95692.34;5010150;28;20033;-58
2022/01/05 08:47:23;;;;;;;6.18;2.50;;;;;;;26.13;33.54;95696.78;5007623;28;20581;-57
2022/01/05 08:49:48;;;;;;;8.48;2.80;;;;;;;26.13;33.43;95702.03;5004287;28;20120;-57
2022/01/05 08:52:14;;;;;;;12.52;1.90;;;;;;;26.12;32.62;95723.97;5006446;28;20677;-59
2022/01/05 08:54:39;;;;;;;10.98;2.10;;;;;;;26.10;32.22;95724.06;5008090;28;20025;-58
2022/01/05 08:57:05;;;;;;;12.82;2.10;;;;;;;26.08;32.21;95725.13;5004800;28;20037;-59
2022/01/05 08:59:30;;;;;;;7.50;1.75;;;;;;;26.06;31.96;95732.28;5007762;28;20252;-59
2022/01/05 09:01:55;;;;;;;8.45;2.40;;;;;;;26.00;32.05;95728.31;5003290;28;20586;-57
2022/01/05 09:04:21;;;;;;;11.48;2.70;;;;;;;26.00;32.09;95723.06;4965854;28;20504;-59
2022/01/05 09:06:47;;;;;;;12.32;2.45;;;;;;;25.98;32.28;95732.84;5008281;28;20038;-60
2022/01/05 09:09:12;;;;;;;9.63;3.03;;;;;;;25.98;32.21;95724.97;5018049;28;20040;-60
2022/01/05 09:11:38;;;;;;;6.72;2.08;;;;;;;25.98;32.43;95730.22;5012876;28;20227;-59
2022/01/05 09:14:03;;;;;;;8.30;2.30;;;;;;;25.98;32.47;95738.09;5003172;28;20315;-59
2022/01/05 09:16:29;;;;;;;9.98;2.10;;;;;;;25.98;32.41;95750.34;4990073;28;20549;-57
2022/01/05 09:18:55;;;;;;;10.63;2.42;;;;;;;26.00;32.31;95748.47;5005956;28;20036;-59
2022/01/05 09:21:20;;;;;;;6.00;2.15;;;;;;;26.00;32.38;95757.19;4988226;28;20057;-58
2022/01/05 09:23:46;;;;;;;4.25;2.08;;;;;;;26.02;32.26;95757.94;4987849;28;20034;-57
2022/01/05 09:26:11;;;;;;;7.25;1.92;;;;;;;26.03;32.10;95764.84;5005696;28;20391;-57
2022/01/05 09:28:42;;;;;;;5.80;1.95;;;;;;;26.05;32.21;95762.94;4983970;28;20075;-59
2022/01/05 09:31:08;;;;;;;9.20;2.30;;;;;;;26.07;32.25;95773.34;5007938;28;20037;-58
2022/01/05 09:33:33;;;;;;;7.28;2.25;;;;;;;26.08;32.00;95767.97;5003891;28;20595;-57
2022/01/05 09:36:06;;;;;;;9.15;2.30;;;;;;;26.10;31.80;95766.06;5004651;28;20033;-57
2022/01/05 09:43:56;;;;;;;9.32;2.13;;;;;;;26.15;30.95;95767.53;4988305;28;20099;-60
2022/01/05 09:46:34;;;;;;;7.93;2.17;;;;;;;26.15;30.71;95772.78;5005734;28;20136;-59
2022/01/05 09:49:10;;;;;;;6.18;2.10;;;;;;;26.15;30.59;95784.13;4986244;28;20041;-59
2022/01/05 09:51:38;;;;;;;6.55;1.95;;;;;;;26.15;30.49;95793.78;4982608;28;20507;-57
2022/01/05 09:54:03;;;;;;;5.13;1.90;;;;;;;26.15;30.18;95784.13;5006559;28;20032;-58
2022/01/05 09:56:31;;;;;;;6.63;1.85;;;;;;;26.15;30.30;95793.78;5006253;28;20675;-58
2022/01/05 09:59:00;;;;;;;4.88;1.52;;;;;;;26.16;30.49;95785.00;5003932;28;20044;-58
2022/01/05 10:01:34;;;;;;;8.25;1.90;;;;;;;26.16;30.31;95812.06;4988328;28;20476;-58
2022/01/05 10:03:59;;;;;;;5.15;1.88;;;;;;;26.15;29.19;95801.66;4979973;28;20285;-59
2022/01/05 10:06:25;;;;;;;16.48;1.90;;;;;;;26.14;29.25;95813.97;4971470;28;20033;-59
2022/01/05 10:08:50;;;;;;;4.68;1.30;;;;;;;26.15;29.34;95825.28;4987358;28;20510;-58
2022/01/05 10:11:16;;;;;;;4.90;1.83;;;;;;;26.11;27.29;95824.69;4986419;28;20433;-59
2022/01/05 10:13:41;;;;;;;12.35;2.70;;;;;;;25.85;21.54;95837.81;5008126;28;20504;-59
2022/01/05 10:16:08;;;;;;;5.80;2.35;;;;;;;25.55;20.52;95834.53;5005865;28;20037;-60
2022/01/05 10:18:40;;;;;;;10.32;2.42;;;;;;;25.30;22.19;95835.34;5006451;28;20517;-60
2022/01/05 10:21:06;;;;;;;5.03;1.98;;;;;;;25.14;22.83;95838.13;4984880;28;21071;-59
2022/01/05 10:23:38;;;;;;;9.10;2.42;;;;;;;25.03;23.54;95825.72;4997737;28;20594;-58
2022/01/05 10:26:32;;;;;;;9.88;2.70;;;;;;;24.95;23.95;95828.84;4985068;28;20746;-60
2022/01/05 10:29:04;;;;;;;9.60;2.28;;;;;;;24.94;24.76;95828.94;5008052;28;20440;-59
2022/01/05 10:31:34;;;;;;;12.25;3.05;;;;;;;24.94;25.16;95840.25;5000549;28;20407;-59
2022/01/05 10:34:12;;;;;;;17.20;3.40;;;;;;;24.95;25.53;95836.72;4994755;28;20042;-60
2022/01/05 10:36:52;;;;;;;13.95;3.78;;;;;;;24.99;25.95;95842.59;4983902;28;20078;-59
2022/01/05 10:39:28;;;;;;;20.77;3.33;;;;;;;25.03;26.40;95850.16;4981184;28;20202;-60
2022/01/05 10:41:53;;;;;;;11.35;3.35;;;;;;;25.08;26.60;95856.88;4986844;28;20037;-60
2022/01/05 10:44:23;;;;;;;12.65;3.55;;;;;;;25.12;26.83;95848.72;5002001;28;20147;-60
2022/01/05 10:46:49;;;;;;;13.15;3.25;;;;;;;25.16;27.04;95855.44;4982114;28;20026;-59
2022/01/05 10:49:41;;;;;;;9.60;3.60;;;;;;;25.21;27.17;95855.16;4975809;28;20032;-57
2022/01/05 10:52:19;;;;;;;11.15;2.80;;;;;;;25.26;27.37;95860.94;4994124;28;20512;-59
2022/01/05 10:54:45;;;;;;;28.90;3.28;;;;;;;25.28;27.60;95859.03;5003524;28;20290;-58
2022/01/05 10:57:12;;;;;;;26.88;3.13;;;;;;;25.33;27.80;95860.50;5001079;28;20032;-57
2022/01/05 10:59:59;;;;;;;28.17;3.20;;;;;;;25.36;27.80;95852.44;5001685;28;20033;-57
2022/01/05 11:02:34;;;;;;;30.75;3.13;;;;;;;25.39;27.91;95849.59;4983242;28;20045;-58
2022/01/05 11:05:06;;;;;;;28.25;3.47;;;;;;;25.40;28.10;95849.50;4998813;28;20040;-57
2022/01/05 11:07:32;;;;;;;10.43;2.88;;;;;;;25.42;28.18;95855.50;5007243;28;20021;-56
2022/01/05 11:10:01;;;;;;;7.72;3.03;;;;;;;25.44;28.19;95858.03;4989543;28;20522;-59
2022/01/05 11:12:42;;;;;;;18.95;3.22;;;;;;;25.47;28.32;95847.31;4986669;28;20091;-57
2022/01/05 11:15:31;;;;;;;17.73;2.83;;;;;;;25.51;28.52;95850.59;4992463;28;20030;-58
2022/01/05 11:18:20;;;;;;;13.15;3.15;;;;;;;25.53;28.77;95853.94;5009758;28;20033;-57
2022/01/05 11:20:55;;;;;;;14.93;2.83;;;;;;;25.55;28.59;95862.56;4971320;28;20107;-59
2022/01/05 11:23:25;;;;;;;19.20;2.67;;;;;;;25.59;28.76;95865.84;4991596;28;20113;-59
2022/01/05 11:25:51;;;;;;;18.42;2.78;;;;;;;25.60;28.84;95867.50;4974688;28;20033;-60
2022/01/05 11:28:17;;;;;;;17.65;3.00;;;;;;;25.60;28.90;95857.03;4988311;28;20428;-59
2022/01/05 11:30:43;;;;;;;21.80;2.83;;;;;;;25.56;28.94;95857.22;4972268;28;20031;-59
2022/01/05 11:33:09;;;;;;;13.77;2.92;;;;;;;25.62;28.84;95868.28;4987311;28;20416;-60
2022/01/05 11:35:34;;;;;;;12.25;2.60;;;;;;;25.63;28.98;95872.56;5007707;28;20056;-58